Time;durP1;ratioP1;P1;durP2;ratioP2;P2;SDS_P1;SDS_P2;PMS_P1;PMS_P2;Temp;Humidity;BMP_temperature;BMP_pressure;BME280_temperature;BME280_humidity;BME280_pressure;Samples;Min_cycle;Max_cycle;Signal;HPM_P1;HPM_P2
2021/07/13 00:01:49;;;;;;;11.17;10.07;;;19.80;99.90;;;;;;5069514;28;20414;-84
2021/07/13 00:04:16;;;;;;;11.13;9.83;;;19.70;99.90;;;;;;5078035;28;20464;-83
2021/07/13 00:06:42;;;;;;;11.40;10.40;;;19.70;99.90;;;;;;5079249;28;20454;-84
2021/07/13 00:09:10;;;;;;;10.63;9.63;;;19.70;99.90;;;;;;5076806;28;20425;-83
2021/07/13 00:11:37;;;;;;;13.70;9.70;;;19.70;99.90;;;;;;5064542;28;20429;-83
2021/07/13 00:14:05;;;;;;;11.20;10.20;;;19.80;99.90;;;;;;5064723;28;20482;-84
2021/07/13 00:16:33;;;;;;;10.17;9.37;;;19.80;99.90;;;;;;5064897;28;20470;-84
2021/07/13 00:19:00;;;;;;;11.23;10.23;;;19.80;99.90;;;;;;5067161;28;20418;-84
2021/07/13 00:21:28;;;;;;;11.17;10.03;;;19.80;99.90;;;;;;5075046;28;20447;-85
2021/07/13 00:23:55;;;;;;;10.70;9.43;;;19.70;99.90;;;;;;5079066;28;20488;-85
2021/07/13 00:26:21;;;;;;;10.10;9.30;;;19.60;99.90;;;;;;5079260;28;20444;-85
2021/07/13 00:28:49;;;;;;;10.77;9.77;;;19.60;99.90;;;;;;5076201;28;20413;-84
2021/07/13 00:31:17;;;;;;;11.13;10.00;;;19.60;99.90;;;;;;5077218;28;20420;-85
2021/07/13 00:33:44;;;;;;;11.90;10.77;;;19.70;99.90;;;;;;5065323;28;20509;-84
2021/07/13 00:36:11;;;;;;;11.50;10.50;;;19.60;99.90;;;;;;5062954;28;20462;-83
2021/07/13 00:38:38;;;;;;;14.30;10.90;;;19.60;99.90;;;;;;5069996;28;20490;-85
2021/07/13 00:41:05;;;;;;;12.10;10.37;;;19.70;99.90;;;;;;5069887;28;20456;-85
2021/07/13 00:43:32;;;;;;;10.67;9.67;;;19.60;99.90;;;;;;5077664;28;20473;-85
2021/07/13 00:46:00;;;;;;;10.33;9.30;;;19.60;99.90;;;;;;5077774;28;20509;-85
2021/07/13 00:48:28;;;;;;;11.17;10.20;;;19.60;99.90;;;;;;5077440;28;20453;-85
2021/07/13 00:50:59;;;;;;;12.17;11.00;;;19.50;99.90;;;;;;5077715;28;20442;-84
2021/07/13 00:53:27;;;;;;;12.60;11.40;;;19.60;99.90;;;;;;5067001;28;20474;-85
2021/07/13 00:55:56;;;;;;;12.60;11.30;;;19.50;99.90;;;;;;5076698;28;20417;-85
2021/07/13 00:58:23;;;;;;;13.30;11.90;;;19.50;99.90;;;;;;5071205;28;20463;-84
2021/07/13 01:00:50;;;;;;;12.57;11.27;;;19.50;99.90;;;;;;5060992;28;20514;-84
2021/07/13 01:03:17;;;;;;;12.70;11.50;;;19.40;99.90;;;;;;5058621;28;20859;-84
2021/07/13 01:05:48;;;;;;;13.63;12.23;;;19.40;99.90;;;;;;5067118;28;20452;-86
2021/07/13 01:08:42;;;;;;;13.67;12.37;;;19.50;99.90;;;;;;5078725;28;20470;-86
2021/07/13 01:11:16;;;;;;;11.53;10.50;;;19.50;99.90;;;;;;5066871;28;20436;-83
2021/07/13 01:13:50;;;;;;;13.60;12.20;;;19.50;99.90;;;;;;5058171;28;20456;-83
2021/07/13 01:16:34;;;;;;;13.50;12.07;;;19.50;99.90;;;;;;5059342;28;20544;-83
2021/07/13 01:19:13;;;;;;;15.40;12.73;;;19.50;99.90;;;;;;5058491;28;20428;-84
2021/07/13 01:21:44;;;;;;;14.30;12.80;;;19.30;99.90;;;;;;5059818;28;20393;-83
2021/07/13 01:24:30;;;;;;;14.83;13.33;;;19.40;99.90;;;;;;5058903;28;20572;-83
2021/07/13 01:27:27;;;;;;;13.23;12.13;;;19.30;99.90;;;;;;5059090;28;20486;-83
2021/07/13 01:29:57;;;;;;;14.50;13.10;;;19.40;99.90;;;;;;5058144;28;20987;-83
2021/07/13 01:32:29;;;;;;;15.43;13.43;;;19.40;99.90;;;;;;5066684;28;20459;-84
2021/07/13 01:35:02;;;;;;;12.87;11.57;;;19.40;99.90;;;;;;5071652;28;20478;-85
2021/07/13 01:37:31;;;;;;;13.43;12.03;;;19.50;99.90;;;;;;5078275;28;20467;-85
2021/07/13 01:40:00;;;;;;;12.87;11.33;;;19.50;99.90;;;;;;5077859;28;20441;-85
2021/07/13 01:42:28;;;;;;;13.50;12.20;;;19.50;99.90;;;;;;5072974;28;20452;-83
2021/07/13 01:45:00;;;;;;;14.40;13.03;;;19.60;99.90;;;;;;5059021;28;20516;-83
2021/07/13 01:47:27;;;;;;;14.70;13.30;;;19.50;99.90;;;;;;5058810;28;20964;-84
2021/07/13 01:49:56;;;;;;;14.97;13.47;;;19.60;99.90;;;;;;5058721;28;20463;-83
2021/07/13 01:52:24;;;;;;;14.10;12.60;;;19.50;99.90;;;;;;5058730;28;20450;-84
2021/07/13 01:54:52;;;;;;;13.37;12.03;;;19.50;99.90;;;;;;5060655;28;20449;-85
2021/07/13 01:57:19;;;;;;;12.70;11.50;;;19.50;99.90;;;;;;5064368;28;20465;-84
2021/07/13 01:59:48;;;;;;;12.40;11.40;;;19.50;99.90;;;;;;5077660;28;20438;-85
2021/07/13 02:02:18;;;;;;;12.30;11.10;;;19.50;99.90;;;;;;5077621;28;20472;-85
2021/07/13 02:04:47;;;;;;;11.67;10.57;;;19.40;99.90;;;;;;5077461;28;20514;-85
2021/07/13 02:07:16;;;;;;;12.53;11.43;;;19.30;99.90;;;;;;5089152;22;20490;-85
2021/07/13 02:09:44;;;;;;;12.10;10.90;;;19.30;99.90;;;;;;5075762;28;20449;-85
2021/07/13 02:12:12;;;;;;;11.40;10.30;;;19.30;99.90;;;;;;5062519;28;20760;-84
2021/07/13 02:14:39;;;;;;;11.77;10.57;;;19.30;99.90;;;;;;5067395;28;20436;-84
2021/07/13 02:17:07;;;;;;;11.30;10.20;;;19.20;99.90;;;;;;5069208;28;20982;-83
2021/07/13 02:19:35;;;;;;;11.80;10.70;;;19.30;99.90;;;;;;5071520;28;20454;-84
2021/07/13 02:22:03;;;;;;;11.47;10.27;;;19.30;99.90;;;;;;5061197;28;20453;-84
2021/07/13 02:24:30;;;;;;;12.47;11.10;;;19.30;99.90;;;;;;5059240;28;20504;-83
2021/07/13 02:27:02;;;;;;;11.60;10.50;;;19.30;99.90;;;;;;5069639;28;20480;-84
2021/07/13 02:29:34;;;;;;;11.20;10.10;;;19.30;99.90;;;;;;5061897;28;20485;-85
2021/07/13 02:32:04;;;;;;;11.60;10.50;;;19.30;99.90;;;;;;5060305;28;20565;-85
2021/07/13 02:34:37;;;;;;;11.50;10.40;;;19.30;99.90;;;;;;5060676;28;20564;-84
2021/07/13 02:37:05;;;;;;;10.70;9.60;;;19.30;99.90;;;;;;5062561;28;20438;-84
2021/07/13 02:39:34;;;;;;;9.90;9.00;;;19.30;99.90;;;;;;5068463;28;20429;-84
2021/07/13 02:42:03;;;;;;;11.40;10.40;;;19.30;99.90;;;;;;5065918;28;20432;-83
2021/07/13 02:44:32;;;;;;;11.47;10.40;;;19.20;99.90;;;;;;5064809;28;20498;-83
2021/07/13 02:47:00;;;;;;;11.90;10.80;;;19.10;99.90;;;;;;5070516;28;20941;-83
2021/07/13 02:49:31;;;;;;;11.77;10.57;;;19.10;99.90;;;;;;5073707;28;20457;-84
2021/07/13 02:52:01;;;;;;;10.27;9.37;;;19.10;99.90;;;;;;5071746;28;20394;-85
2021/07/13 02:54:30;;;;;;;11.50;10.50;;;19.10;99.90;;;;;;5076897;28;20449;-84
2021/07/13 02:57:01;;;;;;;12.83;11.20;;;19.10;99.90;;;;;;5071913;28;20408;-83
2021/07/13 02:59:29;;;;;;;13.37;12.17;;;19.10;99.90;;;;;;5061731;28;20492;-83
2021/07/13 03:01:57;;;;;;;12.40;11.23;;;19.10;99.90;;;;;;5061783;28;20857;-84
2021/07/13 03:04:24;;;;;;;15.60;13.90;;;19.10;99.90;;;;;;5063621;28;20456;-85
2021/07/13 03:06:52;;;;;;;14.17;12.87;;;19.00;99.90;;;;;;5062053;28;20826;-84
2021/07/13 03:09:21;;;;;;;16.00;14.37;;;19.00;99.90;;;;;;5060881;28;20465;-85
2021/07/13 03:11:49;;;;;;;16.20;13.53;;;19.00;99.90;;;;;;5061570;28;20416;-83
2021/07/13 03:14:18;;;;;;;14.17;12.60;;;18.90;99.90;;;;;;5069744;28;20461;-84
2021/07/13 03:16:46;;;;;;;14.70;13.30;;;18.90;99.90;;;;;;5074775;28;20460;-85
2021/07/13 03:19:13;;;;;;;14.47;12.73;;;18.90;99.90;;;;;;5077554;28;20449;-84
2021/07/13 03:21:45;;;;;;;14.37;12.87;;;18.90;99.90;;;;;;5079196;28;20408;-84
2021/07/13 03:24:13;;;;;;;15.53;13.97;;;18.90;99.90;;;;;;5077177;28;20458;-83
2021/07/13 03:26:44;;;;;;;13.67;12.37;;;18.90;99.90;;;;;;5078228;28;20477;-83
2021/07/13 03:29:13;;;;;;;13.37;12.07;;;18.90;99.90;;;;;;5079154;28;20429;-83
2021/07/13 03:31:41;;;;;;;16.23;14.07;;;18.90;99.90;;;;;;5077827;28;20438;-82
2021/07/13 03:34:08;;;;;;;15.90;14.20;;;18.90;99.90;;;;;;5078038;28;20447;-83
2021/07/13 03:36:37;;;;;;;17.43;15.63;;;18.90;99.90;;;;;;5076773;28;20464;-84
2021/07/13 03:39:05;;;;;;;16.17;14.33;;;18.80;99.90;;;;;;5069034;28;20428;-84
2021/07/13 03:41:32;;;;;;;15.67;14.17;;;18.80;99.90;;;;;;5066404;28;20462;-84
2021/07/13 03:44:04;;;;;;;15.87;14.23;;;18.80;99.90;;;;;;5064719;28;20530;-82
2021/07/13 03:46:34;;;;;;;16.10;14.43;;;18.70;99.90;;;;;;5063584;28;20521;-83
2021/07/13 03:49:03;;;;;;;17.07;15.37;;;18.70;99.90;;;;;;5062531;28;20470;-82
2021/07/13 03:51:38;;;;;;;15.67;14.10;;;18.70;99.90;;;;;;5063526;28;20456;-82
2021/07/13 03:54:06;;;;;;;16.27;14.37;;;18.70;99.90;;;;;;5062244;28;20486;-83
2021/07/13 03:56:33;;;;;;;15.03;13.53;;;18.70;99.90;;;;;;5071591;28;20423;-84
2021/07/13 03:59:02;;;;;;;15.90;14.40;;;18.80;99.90;;;;;;5065201;28;20528;-82
2021/07/13 04:01:29;;;;;;;15.47;13.90;;;18.80;99.90;;;;;;5077638;28;20424;-83
2021/07/13 04:03:56;;;;;;;14.97;13.47;;;18.80;99.90;;;;;;5077149;28;20455;-84
2021/07/13 04:06:23;;;;;;;14.53;13.17;;;18.80;99.90;;;;;;5068037;28;20508;-82
2021/07/13 04:08:50;;;;;;;14.93;13.63;;;18.90;99.90;;;;;;5061483;28;20466;-82
2021/07/13 04:11:17;;;;;;;14.20;12.70;;;18.90;99.90;;;;;;5061155;28;20479;-82
2021/07/13 04:13:44;;;;;;;14.57;12.93;;;18.90;99.90;;;;;;5060242;28;20437;-82
2021/07/13 04:16:12;;;;;;;13.47;12.20;;;18.90;99.90;;;;;;5065998;28;20447;-82
2021/07/13 04:18:40;;;;;;;13.87;12.50;;;18.90;99.90;;;;;;5064538;28;20423;-82
2021/07/13 04:21:07;;;;;;;13.83;12.43;;;18.90;99.90;;;;;;5077565;28;20450;-83
2021/07/13 04:23:34;;;;;;;14.73;13.33;;;19.00;99.90;;;;;;5073162;28;20477;-82
2021/07/13 04:26:01;;;;;;;15.23;13.43;;;19.00;99.90;;;;;;5059490;28;21037;-83
2021/07/13 04:28:43;;;;;;;12.10;11.00;;;19.00;99.90;;;;;;5059918;28;20889;-82
2021/07/13 04:31:12;;;;;;;13.77;12.27;;;19.00;99.90;;;;;;5066620;28;20397;-80
2021/07/13 04:33:39;;;;;;;12.57;11.47;;;19.00;99.90;;;;;;5063580;28;20522;-81
2021/07/13 04:36:06;;;;;;;13.17;11.87;;;19.00;99.90;;;;;;5075454;28;20428;-79
2021/07/13 04:38:33;;;;;;;12.57;11.40;;;19.10;99.90;;;;;;5065655;28;20506;-79
2021/07/13 04:41:00;;;;;;;11.33;10.30;;;19.20;99.90;;;;;;5054909;28;20450;-78
2021/07/13 04:43:27;;;;;;;10.90;9.90;;;19.20;99.90;;;;;;5055041;28;20528;-79
2021/07/13 04:45:54;;;;;;;10.83;9.73;;;19.30;99.90;;;;;;5055575;28;20535;-79
2021/07/13 04:48:22;;;;;;;9.07;8.30;;;19.30;99.90;;;;;;5054212;28;20531;-79
2021/07/13 04:50:49;;;;;;;9.30;8.50;;;19.30;99.90;;;;;;5054848;28;20821;-79
2021/07/13 04:53:15;;;;;;;8.50;7.80;;;19.30;99.90;;;;;;5054582;28;20560;-78
2021/07/13 04:55:43;;;;;;;10.47;8.70;;;19.40;99.90;;;;;;5054950;28;20526;-79
2021/07/13 04:58:09;;;;;;;9.07;8.27;;;19.30;99.90;;;;;;5056397;28;20489;-78
2021/07/13 05:00:36;;;;;;;9.80;8.80;;;19.30;99.90;;;;;;5062118;28;20448;-79
2021/07/13 05:03:03;;;;;;;15.63;11.17;;;19.40;99.90;;;;;;5061776;28;20769;-79
2021/07/13 05:05:31;;;;;;;11.63;10.33;;;19.30;99.90;;;;;;5055225;28;20504;-79
2021/07/13 05:07:58;;;;;;;12.33;11.03;;;19.30;99.90;;;;;;5055260;28;20523;-79
2021/07/13 05:10:25;;;;;;;12.60;11.37;;;19.40;99.90;;;;;;5063708;28;20420;-78
2021/07/13 05:12:52;;;;;;;13.07;11.77;;;19.40;99.90;;;;;;5056036;28;20844;-79
2021/07/13 05:15:19;;;;;;;12.63;10.37;;;19.40;99.90;;;;;;5067504;28;20436;-77
2021/07/13 05:17:46;;;;;;;10.37;9.33;;;19.40;99.90;;;;;;5053989;28;20549;-78
2021/07/13 05:20:14;;;;;;;13.73;12.43;;;19.50;99.90;;;;;;5053686;28;20461;-79
2021/07/13 05:22:44;;;;;;;13.73;12.47;;;19.60;99.90;;;;;;5056338;28;20427;-84
2021/07/13 05:25:12;;;;;;;12.33;11.10;;;19.60;99.90;;;;;;5069662;28;20467;-82
2021/07/13 05:27:41;;;;;;;14.23;12.77;;;19.50;99.90;;;;;;5070280;28;20479;-80
2021/07/13 05:30:10;;;;;;;13.93;12.60;;;19.60;99.90;;;;;;5059837;28;20447;-81
2021/07/13 05:32:38;;;;;;;13.23;12.03;;;19.60;99.90;;;;;;5059117;28;20451;-81
2021/07/13 05:35:06;;;;;;;15.17;13.70;;;19.60;99.90;;;;;;5058791;28;20484;-80
2021/07/13 05:37:34;;;;;;;14.70;12.57;;;19.60;99.90;;;;;;5058787;28;20528;-81
2021/07/13 05:40:03;;;;;;;13.43;12.13;;;19.70;99.90;;;;;;5058248;28;20958;-81
2021/07/13 05:42:31;;;;;;;13.33;12.00;;;19.70;99.90;;;;;;5057989;28;20461;-81
2021/07/13 05:44:58;;;;;;;12.57;11.47;;;19.70;99.90;;;;;;5074112;28;20466;-84
2021/07/13 05:47:25;;;;;;;13.57;12.37;;;19.60;99.90;;;;;;5076465;28;20490;-85
2021/07/13 05:49:52;;;;;;;13.47;12.10;;;19.70;99.90;;;;;;5077139;28;20445;-83
2021/07/13 05:52:18;;;;;;;13.03;11.80;;;19.70;99.90;;;;;;5077183;28;20459;-84
2021/07/13 05:54:45;;;;;;;15.27;11.53;;;19.70;99.90;;;;;;5076223;28;20481;-83
2021/07/13 05:57:14;;;;;;;15.20;13.27;;;19.70;99.90;;;;;;5060201;28;20479;-79
2021/07/13 05:59:41;;;;;;;13.97;12.67;;;19.80;99.90;;;;;;5056968;28;20481;-79
2021/07/13 06:02:09;;;;;;;16.07;11.80;;;19.70;99.90;;;;;;5056843;28;20471;-82
2021/07/13 06:04:36;;;;;;;13.37;11.80;;;19.80;99.90;;;;;;5064875;28;20448;-81
2021/07/13 06:07:03;;;;;;;11.80;10.80;;;19.80;99.90;;;;;;5059549;28;20931;-80
2021/07/13 06:09:30;;;;;;;13.10;11.77;;;19.70;99.90;;;;;;5056438;28;20524;-81
2021/07/13 06:11:58;;;;;;;12.70;11.50;;;19.70;99.90;;;;;;5056765;28;20450;-80
2021/07/13 06:14:26;;;;;;;13.63;12.40;;;19.70;99.90;;;;;;5058304;28;20433;-80
2021/07/13 06:16:53;;;;;;;12.27;11.27;;;19.70;99.90;;;;;;5056900;28;20454;-81
2021/07/13 06:19:20;;;;;;;13.67;12.40;;;19.60;99.90;;;;;;5057182;28;20992;-82
2021/07/13 06:21:47;;;;;;;15.60;14.10;;;19.60;99.90;;;;;;5057675;28;20455;-82
2021/07/13 06:24:14;;;;;;;13.73;12.53;;;19.60;99.90;;;;;;5065637;28;20472;-82
2021/07/13 06:26:41;;;;;;;14.27;12.90;;;19.50;99.90;;;;;;5074553;28;20500;-85
2021/07/13 06:29:08;;;;;;;13.80;12.63;;;19.50;99.90;;;;;;5066440;28;20551;-81
2021/07/13 06:31:37;;;;;;;13.87;12.57;;;19.50;99.90;;;;;;5058191;28;20519;-81
2021/07/13 06:34:04;;;;;;;14.10;12.90;;;19.50;99.90;;;;;;5058985;28;20443;-84
2021/07/13 06:36:31;;;;;;;8.60;7.80;;;19.50;99.90;;;;;;5061083;28;20536;-83
2021/07/13 06:38:58;;;;;;;6.90;6.40;;;19.40;99.90;;;;;;5059854;28;20448;-85
2021/07/13 06:41:25;;;;;;;6.93;6.33;;;19.20;99.90;;;;;;5062207;28;20460;-85
2021/07/13 06:43:52;;;;;;;5.80;5.20;;;19.00;99.90;;;;;;5071107;28;20465;-86
2021/07/13 06:46:18;;;;;;;4.10;3.80;;;19.00;99.90;;;;;;5074173;28;20459;-86
2021/07/13 06:48:47;;;;;;;4.70;4.40;;;18.80;99.90;;;;;;5070026;28;20448;-86
2021/07/13 06:51:14;;;;;;;5.63;5.13;;;18.70;99.90;;;;;;5058039;28;20488;-86
2021/07/13 06:53:41;;;;;;;5.27;4.87;;;18.70;99.90;;;;;;5061810;28;20474;-85
2021/07/13 06:56:08;;;;;;;5.90;5.30;;;18.70;99.90;;;;;;5064096;28;20461;-84
2021/07/13 06:58:35;;;;;;;5.20;4.70;;;18.50;99.90;;;;;;5072149;28;20856;-84
2021/07/13 07:01:02;;;;;;;4.77;4.43;;;18.50;99.90;;;;;;5072854;28;20449;-85
2021/07/13 07:03:29;;;;;;;4.70;4.30;;;18.40;99.90;;;;;;5072996;28;20476;-86
2021/07/13 07:05:57;;;;;;;4.10;3.80;;;18.30;99.90;;;;;;5072571;28;20503;-85
2021/07/13 07:08:24;;;;;;;3.97;3.67;;;18.30;99.90;;;;;;5074731;28;20419;-85
2021/07/13 07:10:51;;;;;;;3.63;3.43;;;18.20;99.90;;;;;;5068523;28;20453;-87
2021/07/13 07:13:18;;;;;;;3.50;3.30;;;18.20;99.90;;;;;;5078775;28;20463;-85
2021/07/13 07:15:45;;;;;;;3.70;3.40;;;18.20;99.90;;;;;;5084325;28;20486;-84
2021/07/13 07:18:11;;;;;;;3.77;3.43;;;18.20;99.90;;;;;;5084535;28;20949;-83
2021/07/13 07:20:39;;;;;;;3.03;2.83;;;18.20;99.90;;;;;;5083411;28;20963;-84
2021/07/13 07:23:07;;;;;;;2.63;2.43;;;18.10;99.90;;;;;;5084904;28;20437;-85
2021/07/13 07:25:34;;;;;;;3.33;3.03;;;18.10;99.90;;;;;;5085140;28;20479;-86
2021/07/13 07:28:01;;;;;;;3.30;3.10;;;18.10;99.90;;;;;;5085952;28;20519;-86
2021/07/13 07:30:30;;;;;;;3.40;3.10;;;18.10;99.90;;;;;;5087355;28;20479;-86
2021/07/13 07:32:58;;;;;;;2.87;2.70;;;18.00;99.90;;;;;;5083284;28;20444;-86
2021/07/13 07:35:26;;;;;;;2.73;2.63;;;18.00;99.90;;;;;;5082388;28;20559;-86
2021/07/13 07:37:53;;;;;;;3.33;3.00;;;17.90;99.90;;;;;;5082216;28;20422;-86
2021/07/13 07:40:22;;;;;;;2.90;2.70;;;17.90;99.90;;;;;;5082032;28;20526;-87
2021/07/13 07:42:52;;;;;;;2.87;2.67;;;17.90;99.90;;;;;;5084097;28;20455;-85
2021/07/13 07:45:21;;;;;;;2.37;2.27;;;17.90;99.90;;;;;;5081464;28;20460;-85
2021/07/13 07:47:48;;;;;;;2.30;2.10;;;17.90;99.90;;;;;;5071516;28;20530;-84
2021/07/13 07:50:15;;;;;;;2.87;2.67;;;17.90;99.90;;;;;;5053121;28;20469;-85
2021/07/13 07:52:43;;;;;;;2.83;2.63;;;17.90;99.90;;;;;;5061106;28;20475;-85
2021/07/13 07:55:11;;;;;;;2.40;2.20;;;17.90;99.90;;;;;;5068246;28;20475;-84
2021/07/13 07:57:40;;;;;;;2.40;1.87;;;17.90;99.90;;;;;;5061929;28;20484;-85
2021/07/13 08:00:11;;;;;;;2.40;2.00;;;17.90;99.90;;;;;;5065868;28;20479;-83
2021/07/13 08:02:37;;;;;;;2.03;1.80;;;18.00;99.90;;;;;;5071624;28;20411;-85
2021/07/13 08:05:06;;;;;;;2.70;2.50;;;18.00;99.90;;;;;;5079124;28;20480;-85
2021/07/13 08:07:33;;;;;;;2.50;2.30;;;18.00;99.90;;;;;;5065860;28;20549;-84
2021/07/13 08:10:01;;;;;;;3.10;2.13;;;17.90;99.90;;;;;;5067170;28;20453;-86
2021/07/13 08:12:28;;;;;;;2.23;1.80;;;17.90;99.90;;;;;;5077110;28;20946;-86
2021/07/13 08:14:56;;;;;;;1.33;1.23;;;17.90;99.90;;;;;;5078564;28;20468;-86
2021/07/13 08:17:23;;;;;;;1.17;0.63;;;17.70;99.90;;;;;;5077141;28;20456;-85
2021/07/13 08:19:50;;;;;;;0.77;0.77;;;17.50;99.90;;;;;;5068310;28;20952;-87
2021/07/13 08:22:17;;;;;;;0.70;0.70;;;17.30;99.90;;;;;;5089501;22;20483;-77
2021/07/13 08:24:44;;;;;;;0.67;0.67;;;17.20;99.90;;;;;;5076179;28;20457;-77
2021/07/13 08:27:11;;;;;;;1.07;1.00;;;17.10;99.90;;;;;;5061300;28;20591;-80
2021/07/13 08:29:38;;;;;;;2.47;1.00;;;16.90;99.90;;;;;;5060154;28;20488;-78
2021/07/13 08:32:07;;;;;;;0.50;0.50;;;16.80;99.90;;;;;;5059721;28;20473;-80
2021/07/13 08:34:35;;;;;;;1.07;1.00;;;16.70;99.90;;;;;;5059742;28;20799;-79
2021/07/13 08:37:02;;;;;;;1.23;0.77;;;16.60;99.90;;;;;;5056288;28;20456;-79
2021/07/13 08:39:29;;;;;;;0.70;0.70;;;16.60;99.90;;;;;;5062315;28;20468;-79
2021/07/13 08:41:56;;;;;;;0.80;0.80;;;16.50;99.90;;;;;;5061822;28;20528;-80
2021/07/13 08:44:24;;;;;;;0.60;0.60;;;16.40;99.90;;;;;;5062225;28;20456;-79
2021/07/13 08:46:51;;;;;;;0.83;0.83;;;16.40;99.90;;;;;;5062391;28;21039;-79
2021/07/13 08:49:22;;;;;;;2.00;1.57;;;16.30;99.90;;;;;;5071093;28;20927;-79
2021/07/13 08:51:49;;;;;;;0.70;0.70;;;16.40;99.90;;;;;;5072267;28;20514;-79
2021/07/13 08:54:17;;;;;;;0.83;0.83;;;16.30;99.90;;;;;;5065600;28;20460;-79
2021/07/13 08:56:44;;;;;;;0.90;0.87;;;16.30;99.90;;;;;;5058685;28;20833;-79
2021/07/13 08:59:11;;;;;;;0.73;0.73;;;16.30;99.90;;;;;;5059102;28;20456;-78
2021/07/13 09:01:39;;;;;;;1.27;0.90;;;16.20;99.90;;;;;;5057911;28;20495;-78
2021/07/13 09:04:09;;;;;;;0.90;0.90;;;16.20;99.90;;;;;;5055179;28;20512;-78
2021/07/13 09:06:55;;;;;;;1.10;1.00;;;16.10;99.90;;;;;;5054660;28;20462;-79
2021/07/13 09:09:27;;;;;;;0.77;0.77;;;16.20;99.90;;;;;;5056457;28;20939;-78
2021/07/13 09:12:14;;;;;;;0.80;0.80;;;16.10;99.90;;;;;;5056396;28;20479;-79
2021/07/13 09:14:50;;;;;;;0.90;0.90;;;16.20;99.90;;;;;;5064254;28;20468;-79
2021/07/13 09:17:34;;;;;;;1.07;0.93;;;16.10;99.90;;;;;;5072120;28;20469;-80
2021/07/13 09:20:05;;;;;;;3.47;1.27;;;16.10;99.90;;;;;;5077236;28;20443;-79
2021/07/13 09:22:33;;;;;;;1.50;1.40;;;16.10;99.90;;;;;;5077221;28;20475;-78
2021/07/13 09:25:00;;;;;;;0.80;0.80;;;16.00;99.90;;;;;;5077276;28;20227;-78
2021/07/13 09:27:28;;;;;;;1.90;1.00;;;16.00;99.90;;;;;;5067435;28;20512;-78
2021/07/13 09:29:55;;;;;;;1.23;1.13;;;15.90;99.90;;;;;;5063893;28;20480;-79
2021/07/13 09:32:29;;;;;;;2.00;1.20;;;15.90;99.90;;;;;;5058326;28;20314;-79
2021/07/13 09:34:58;;;;;;;0.93;0.93;;;15.90;99.90;;;;;;5060860;28;20219;-78
2021/07/13 09:37:27;;;;;;;0.93;0.90;;;15.80;99.90;;;;;;5062822;28;20227;-78
2021/07/13 09:39:57;;;;;;;1.40;1.30;;;15.80;99.90;;;;;;5064540;28;20284;-79
2021/07/13 09:42:25;;;;;;;1.48;1.10;;;15.80;99.90;;;;;;5061970;28;20262;-78
2021/07/13 09:44:52;;;;;;;1.00;1.00;;;15.80;99.90;;;;;;5060173;28;20215;-78
2021/07/13 09:47:29;;;;;;;0.77;0.77;;;15.80;99.90;;;;;;5065052;28;20232;-79
2021/07/13 09:49:58;;;;;;;1.00;1.00;;;15.80;99.90;;;;;;5066899;28;20586;-78
2021/07/13 09:52:26;;;;;;;0.75;0.75;;;15.80;99.90;;;;;;5062462;28;20238;-78
2021/07/13 09:54:53;;;;;;;1.20;1.13;;;15.80;99.90;;;;;;5059064;28;20683;-78
2021/07/13 09:57:24;;;;;;;1.08;1.02;;;15.90;99.90;;;;;;5056446;28;20220;-78
2021/07/13 09:59:52;;;;;;;0.90;0.90;;;15.90;99.90;;;;;;5055115;28;20310;-76
2021/07/13 10:02:23;;;;;;;0.75;0.75;;;15.90;99.90;;;;;;5055862;28;20224;-79
2021/07/13 10:04:50;;;;;;;3.05;0.90;;;15.90;99.90;;;;;;5058809;28;20240;-79
2021/07/13 10:07:18;;;;;;;0.73;0.70;;;16.00;99.90;;;;;;5064406;28;20251;-79
2021/07/13 10:09:47;;;;;;;0.70;0.70;;;16.00;99.90;;;;;;5056974;28;20571;-77
2021/07/13 10:12:16;;;;;;;0.85;0.70;;;15.90;99.90;;;;;;5055404;28;20468;-79
2021/07/13 10:14:46;;;;;;;0.70;0.70;;;15.90;99.90;;;;;;5056529;28;20209;-78
2021/07/13 10:17:15;;;;;;;0.70;0.70;;;16.00;99.90;;;;;;5056071;28;20213;-78
2021/07/13 10:19:46;;;;;;;0.60;0.60;;;16.00;99.90;;;;;;5057261;28;20304;-78
2021/07/13 10:22:15;;;;;;;0.47;0.47;;;16.00;99.90;;;;;;5057348;28;20229;-78
2021/07/13 10:24:43;;;;;;;0.40;0.40;;;15.90;99.90;;;;;;5056355;28;20220;-78
2021/07/13 10:27:14;;;;;;;0.63;0.60;;;15.80;99.90;;;;;;5061385;28;20248;-78
2021/07/13 10:29:44;;;;;;;0.75;0.50;;;15.80;99.90;;;;;;5079211;28;20233;-78
2021/07/13 10:32:31;;;;;;;1.20;0.60;;;15.80;99.90;;;;;;5071376;28;20221;-77
2021/07/13 10:35:00;;;;;;;0.60;0.60;;;15.80;99.90;;;;;;5080464;28;20192;-78
2021/07/13 10:37:29;;;;;;;0.70;0.70;;;15.70;99.90;;;;;;5072884;28;20557;-77
2021/07/13 10:39:58;;;;;;;0.60;0.60;;;15.70;99.90;;;;;;5060494;28;20578;-78
2021/07/13 10:42:49;;;;;;;0.80;0.80;;;15.70;99.90;;;;;;5061123;28;20264;-80
2021/07/13 10:45:24;;;;;;;1.83;0.50;;;15.80;99.90;;;;;;5063587;28;20213;-79
2021/07/13 10:48:13;;;;;;;1.50;0.75;;;15.90;99.90;;;;;;5075579;28;20219;-78
2021/07/13 10:51:06;;;;;;;1.05;0.80;;;15.80;99.90;;;;;;5075471;28;20256;-78
2021/07/13 10:53:35;;;;;;;1.45;0.60;;;15.80;99.90;;;;;;5071595;28;20213;-77
2021/07/13 10:56:09;;;;;;;0.82;0.82;;;15.90;99.90;;;;;;5068681;28;20216;-78
2021/07/13 10:58:44;;;;;;;0.67;0.67;;;16.20;99.90;;;;;;5061623;28;20624;-79
2021/07/13 11:01:28;;;;;;;0.68;0.68;;;16.30;99.90;;;;;;5059379;28;20478;-76
2021/07/13 11:04:15;;;;;;;1.23;0.67;;;16.40;99.90;;;;;;5060550;28;20296;-79
2021/07/13 11:07:06;;;;;;;0.90;0.90;;;16.40;99.90;;;;;;5058533;28;20503;-77
2021/07/13 11:09:37;;;;;;;0.60;0.60;;;16.40;99.90;;;;;;5042930;28;20501;-78
2021/07/13 11:12:15;;;;;;;3.60;0.73;;;16.50;99.90;;;;;;5056507;28;20538;-78
2021/07/13 11:14:59;;;;;;;0.60;0.60;;;16.50;99.90;;;;;;5057383;28;20505;-77
2021/07/13 11:17:32;;;;;;;1.30;0.60;;;16.60;99.90;;;;;;5056159;28;20469;-77
2021/07/13 11:20:08;;;;;;;0.60;0.60;;;16.60;99.90;;;;;;5062419;28;20244;-78
2021/07/13 11:22:38;;;;;;;1.63;0.90;;;16.60;99.90;;;;;;5058292;28;20952;-77
2021/07/13 11:25:06;;;;;;;1.43;1.10;;;16.60;99.90;;;;;;5056731;28;20961;-77
2021/07/13 11:27:35;;;;;;;0.60;0.60;;;16.50;99.90;;;;;;5059448;28;20552;-77
2021/07/13 11:30:02;;;;;;;0.73;0.73;;;16.40;99.90;;;;;;5060524;28;20463;-77
2021/07/13 11:32:28;;;;;;;0.60;0.60;;;16.50;99.90;;;;;;5059757;28;20509;-77
2021/07/13 11:34:57;;;;;;;1.20;1.10;;;16.40;99.90;;;;;;5061478;28;20422;-77
2021/07/13 11:37:25;;;;;;;1.60;0.87;;;16.40;99.90;;;;;;5062159;28;20505;-75
2021/07/13 11:40:07;;;;;;;1.10;1.00;;;16.50;99.90;;;;;;5074948;28;20516;-75
2021/07/13 11:42:34;;;;;;;1.40;1.30;;;16.70;99.90;;;;;;5077909;28;20482;-74
2021/07/13 11:45:04;;;;;;;0.90;0.90;;;16.70;99.90;;;;;;5074722;28;20445;-76
2021/07/13 11:47:31;;;;;;;1.57;1.10;;;16.70;99.90;;;;;;5067712;28;20475;-76
2021/07/13 11:49:59;;;;;;;1.90;1.27;;;16.70;99.90;;;;;;5058556;28;20482;-77
2021/07/13 11:52:27;;;;;;;0.80;0.80;;;16.70;99.90;;;;;;5067806;28;20522;-75
2021/07/13 11:54:57;;;;;;;1.23;1.00;;;16.70;99.90;;;;;;5066934;28;20458;-76
2021/07/13 11:57:26;;;;;;;3.53;1.97;;;16.90;99.90;;;;;;5065700;28;20492;-76
2021/07/13 11:59:53;;;;;;;1.30;1.20;;;17.10;99.90;;;;;;5068106;28;20455;-75
2021/07/13 12:02:21;;;;;;;1.20;1.10;;;17.20;99.90;;;;;;5066660;28;20472;-75
2021/07/13 12:04:50;;;;;;;1.13;1.03;;;17.20;99.90;;;;;;5061340;28;20919;-75
2021/07/13 12:07:20;;;;;;;0.93;0.80;;;17.20;99.90;;;;;;5061601;28;20522;-76
2021/07/13 12:10:04;;;;;;;6.67;1.40;;;17.10;99.90;;;;;;5062079;28;20452;-75
2021/07/13 12:12:37;;;;;;;1.00;1.00;;;17.10;99.90;;;;;;5062406;28;20464;-75
2021/07/13 12:15:05;;;;;;;1.40;1.30;;;17.10;99.90;;;;;;5057927;28;20425;-75
2021/07/13 12:17:32;;;;;;;1.20;1.10;;;17.10;99.90;;;;;;5058806;28;20499;-76
2021/07/13 12:20:06;;;;;;;1.30;1.20;;;17.20;99.90;;;;;;5059293;28;20453;-75
2021/07/13 12:22:35;;;;;;;1.83;1.00;;;17.20;99.90;;;;;;5057923;28;20524;-76
2021/07/13 12:25:05;;;;;;;1.20;1.10;;;17.10;99.90;;;;;;5058445;28;20439;-75
2021/07/13 12:27:33;;;;;;;1.60;1.17;;;17.10;99.90;;;;;;5061172;28;20536;-75
2021/07/13 12:30:14;;;;;;;3.20;1.00;;;17.00;99.90;;;;;;5063402;28;20468;-75
2021/07/13 12:32:42;;;;;;;1.30;1.20;;;17.00;99.90;;;;;;5058986;28;20526;-75
2021/07/13 12:35:15;;;;;;;1.37;1.17;;;17.00;99.90;;;;;;5059353;28;20464;-77
2021/07/13 12:37:44;;;;;;;1.57;1.20;;;17.00;99.90;;;;;;5060300;28;20440;-75
2021/07/13 12:40:14;;;;;;;1.20;1.10;;;16.90;99.90;;;;;;5060830;28;20446;-74
2021/07/13 12:42:43;;;;;;;1.20;1.10;;;17.00;99.90;;;;;;5059700;28;20460;-75
2021/07/13 12:45:15;;;;;;;1.90;0.90;;;17.10;99.90;;;;;;5064938;28;20484;-75
2021/07/13 12:47:46;;;;;;;1.47;1.33;;;17.20;99.90;;;;;;5077591;28;20444;-76
2021/07/13 12:50:22;;;;;;;1.30;1.20;;;17.20;99.90;;;;;;5065216;28;21029;-75